Time;durP1;ratioP1;P1;durP2;ratioP2;P2;SDS_P1;SDS_P2;PMS_P1;PMS_P2;Temp;Humidity;BMP_temperature;BMP_pressure;BME280_temperature;BME280_humidity;BME280_pressure;Samples;Min_cycle;Max_cycle;Signal;HPM_P1;HPM_P2
2023/12/10 00:02:15;;;;;;;16.43;8.47;;;;;;;-1.34;100.00;100823.75;4960443;28;20105;-70
2023/12/10 00:04:41;;;;;;;16.57;7.90;;;;;;;-1.28;100.00;100824.31;4957410;28;20031;-72
2023/12/10 00:07:06;;;;;;;17.57;8.03;;;;;;;-1.33;100.00;100818.81;4958415;28;20453;-73
2023/12/10 00:09:32;;;;;;;17.43;8.80;;;;;;;-1.42;100.00;100829.75;4961488;28;20055;-72
2023/12/10 00:11:57;;;;;;;15.90;8.20;;;;;;;-1.41;100.00;100814.69;4971491;28;20505;-72
2023/12/10 00:14:24;;;;;;;16.30;7.83;;;;;;;-1.37;100.00;100826.00;4936768;28;20516;-71
2023/12/10 00:16:50;;;;;;;15.53;7.57;;;;;;;-1.41;100.00;100819.75;4926179;29;20050;-71
2023/12/10 00:19:16;;;;;;;16.93;8.50;;;;;;;-1.42;100.00;100827.22;4954444;28;20501;-72
2023/12/10 00:21:42;;;;;;;13.10;6.93;;;;;;;-1.35;100.00;100829.56;4952573;28;20058;-72
2023/12/10 00:24:08;;;;;;;15.63;7.53;;;;;;;-1.45;100.00;100837.97;4967478;28;20081;-74
2023/12/10 00:26:33;;;;;;;14.70;8.17;;;;;;;-1.44;100.00;100836.34;4968980;28;20023;-72
2023/12/10 00:28:59;;;;;;;14.87;7.37;;;;;;;-1.44;100.00;100834.69;4966487;28;20058;-73
2023/12/10 00:31:25;;;;;;;14.97;7.70;;;;;;;-1.39;100.00;100830.06;4968627;28;20031;-72
2023/12/10 00:33:50;;;;;;;14.63;7.57;;;;;;;-1.75;100.00;100782.94;4966640;28;20037;-74
2023/12/10 00:36:16;;;;;;;17.67;8.93;;;;;;;-1.87;100.00;100786.13;4971137;28;20039;-73
2023/12/10 00:38:42;;;;;;;20.90;8.13;;;;;;;-1.55;100.00;100836.25;4967502;28;20565;-74
2023/12/10 00:41:10;;;;;;;14.83;7.93;;;;;;;-1.57;100.00;100821.66;4961377;28;20026;-74
2023/12/10 00:43:40;;;;;;;15.38;7.72;;;;;;;-1.53;100.00;100833.88;4970955;28;20038;-75
2023/12/10 00:46:05;;;;;;;15.27;7.25;;;;;;;-1.52;100.00;100838.16;4970772;28;20027;-74
2023/12/10 00:48:31;;;;;;;14.80;8.43;;;;;;;-1.56;100.00;100831.91;4971229;28;20093;-75
2023/12/10 00:50:56;;;;;;;17.63;8.77;;;;;;;-1.70;100.00;100819.66;4971160;28;20034;-74
2023/12/10 00:53:22;;;;;;;19.20;9.50;;;;;;;-1.79;100.00;100825.66;4970286;28;20027;-74
2023/12/10 00:55:48;;;;;;;16.57;8.23;;;;;;;-1.69;100.00;100839.16;4970745;28;20109;-70
2023/12/10 00:58:14;;;;;;;16.00;8.70;;;;;;;-1.92;100.00;100832.84;4973915;28;20030;-71
2023/12/10 01:00:40;;;;;;;14.80;7.87;;;;;;;-1.89;100.00;100834.81;4974167;28;20160;-71
2023/12/10 01:03:06;;;;;;;20.27;9.53;;;;;;;-1.91;100.00;100839.69;4939983;28;20043;-72
2023/12/10 01:05:32;;;;;;;19.33;8.83;;;;;;;-2.16;100.00;100791.00;4974193;28;20033;-72
2023/12/10 01:07:57;;;;;;;15.50;8.53;;;;;;;-1.96;100.00;100826.66;4973693;28;20037;-72
2023/12/10 01:10:23;;;;;;;20.17;8.50;;;;;;;-1.90;100.00;100816.19;4974032;28;20019;-73
2023/12/10 01:12:48;;;;;;;18.43;9.30;;;;;;;-1.84;100.00;100808.28;4974250;28;20094;-72
2023/12/10 01:15:14;;;;;;;18.23;9.03;;;;;;;-1.88;100.00;100799.53;4956855;28;20038;-73
2023/12/10 01:17:39;;;;;;;20.27;9.90;;;;;;;-1.91;100.00;100789.09;4974306;28;20062;-74
2023/12/10 01:20:06;;;;;;;19.53;10.07;;;;;;;-1.84;100.00;100780.44;4973789;28;20503;-74
2023/12/10 01:22:31;;;;;;;17.33;8.87;;;;;;;-1.91;100.00;100794.16;4974054;28;20037;-73
2023/12/10 01:24:58;;;;;;;19.63;8.50;;;;;;;-2.15;100.00;100753.22;4974119;28;20030;-74
2023/12/10 01:27:23;;;;;;;19.47;10.03;;;;;;;-1.99;100.00;100778.28;4973497;28;20031;-74
2023/12/10 01:29:49;;;;;;;22.43;11.57;;;;;;;-2.42;100.00;100679.88;4952487;29;20114;-74
2023/12/10 01:32:15;;;;;;;23.50;13.00;;;;;;;-1.82;100.00;100769.72;4971971;28;20433;-74
2023/12/10 01:34:44;;;;;;;19.63;9.80;;;;;;;-1.77;100.00;100781.88;4956633;28;20023;-74
2023/12/10 01:37:10;;;;;;;18.90;9.82;;;;;;;-1.81;100.00;100780.72;4973299;28;20393;-73
2023/12/10 01:39:36;;;;;;;19.90;9.37;;;;;;;-1.93;100.00;100749.22;4973770;28;20043;-73
2023/12/10 01:42:02;;;;;;;16.77;8.40;;;;;;;-1.71;100.00;100767.25;4973222;28;20034;-74
2023/12/10 01:44:28;;;;;;;15.27;8.17;;;;;;;-1.73;100.00;100763.69;4973889;28;20030;-73
2023/12/10 01:46:55;;;;;;;17.47;7.97;;;;;;;-1.77;100.00;100757.44;4973518;28;20540;-73
2023/12/10 01:49:23;;;;;;;15.03;8.13;;;;;;;-1.79;100.00;100758.97;4973388;28;20093;-73
2023/12/10 01:51:49;;;;;;;17.40;8.93;;;;;;;-1.96;100.00;100760.88;4955938;28;20516;-74
2023/12/10 01:54:23;;;;;;;17.33;9.13;;;;;;;-2.03;100.00;100762.66;4951604;29;20749;-74
2023/12/10 01:56:50;;;;;;;17.27;9.67;;;;;;;-2.19;100.00;100763.81;4951590;29;20054;-74
2023/12/10 01:59:19;;;;;;;15.57;8.17;;;;;;;-2.33;100.00;100748.97;4935419;29;20110;-74
2023/12/10 02:01:46;;;;;;;17.20;9.07;;;;;;;-2.52;100.00;100703.41;4951665;29;20118;-74
2023/12/10 02:04:13;;;;;;;17.40;8.73;;;;;;;-2.08;100.00;100758.84;4951367;29;20444;-74
2023/12/10 02:06:39;;;;;;;17.83;9.23;;;;;;;-2.50;100.00;100667.41;4951546;29;20039;-74
2023/12/10 02:09:16;;;;;;;17.10;8.93;;;;;;;-2.09;100.00;100736.81;4950592;28;20039;-74
2023/12/10 02:11:42;;;;;;;15.10;7.77;;;;;;;-2.05;100.00;100746.47;4951351;29;20098;-74
2023/12/10 02:14:08;;;;;;;16.30;8.50;;;;;;;-1.91;100.00;100757.84;4951240;29;20473;-74
2023/12/10 02:16:33;;;;;;;17.23;8.63;;;;;;;-1.80;100.00;100745.41;4951050;29;20563;-74
2023/12/10 02:18:59;;;;;;;18.63;8.60;;;;;;;-1.70;100.00;100733.59;4950717;29;20066;-74
2023/12/10 02:21:26;;;;;;;14.43;7.83;;;;;;;-1.45;100.00;100745.94;4951448;29;20155;-75
2023/12/10 02:24:04;;;;;;;16.03;8.97;;;;;;;-1.59;100.00;100732.91;4951206;29;20122;-74
2023/12/10 02:26:30;;;;;;;15.93;7.70;;;;;;;-1.75;100.00;100739.91;4951239;29;20035;-73
2023/12/10 02:28:57;;;;;;;16.03;8.20;;;;;;;-2.04;100.00;100703.59;4950381;28;20054;-74
2023/12/10 02:31:24;;;;;;;13.87;7.87;;;;;;;-2.27;100.00;100666.09;4958746;28;20046;-74
2023/12/10 02:33:50;;;;;;;15.90;8.70;;;;;;;-1.92;100.00;100723.16;4972930;28;20062;-74
2023/12/10 02:36:15;;;;;;;19.00;8.33;;;;;;;-1.86;100.00;100729.66;4972747;28;20058;-74
2023/12/10 02:38:41;;;;;;;17.50;8.77;;;;;;;-1.88;100.00;100727.75;4972367;28;20374;-74
2023/12/10 02:41:07;;;;;;;15.33;8.40;;;;;;;-2.17;100.00;100729.44;4972646;28;20681;-74
2023/12/10 02:43:33;;;;;;;15.90;9.57;;;;;;;-2.56;100.00;100709.81;4971992;28;20050;-73
2023/12/10 02:45:58;;;;;;;17.23;8.47;;;;;;;-2.41;100.00;100757.50;4972235;28;20022;-73
2023/12/10 02:48:24;;;;;;;20.17;9.73;;;;;;;-2.79;100.00;100697.56;4972404;28;20035;-74
2023/12/10 02:50:50;;;;;;;16.37;8.37;;;;;;;-2.42;100.00;100763.31;4972512;28;20035;-74
2023/12/10 02:53:16;;;;;;;17.67;8.97;;;;;;;-2.91;100.00;100686.31;4972048;28;20034;-75
2023/12/10 02:55:42;;;;;;;17.43;8.63;;;;;;;-2.52;100.00;100769.13;4972523;28;20412;-74
2023/12/10 02:58:07;;;;;;;18.47;9.17;;;;;;;-2.54;100.00;100756.34;4971861;28;20102;-74
2023/12/10 03:00:33;;;;;;;20.97;10.13;;;;;;;-2.55;100.00;100747.00;4972240;28;20054;-74
2023/12/10 03:02:58;;;;;;;22.90;12.87;;;;;;;-2.58;100.00;100731.53;4972071;28;20117;-74
2023/12/10 03:05:24;;;;;;;26.47;15.30;;;;;;;-2.34;100.00;100764.94;4972215;28;20547;-74
2023/12/10 03:07:50;;;;;;;21.57;11.37;;;;;;;-2.83;100.00;100675.28;4971904;28;20023;-72
2023/12/10 03:10:16;;;;;;;18.07;9.60;;;;;;;-2.40;100.00;100769.41;4972298;28;20039;-72
2023/12/10 03:12:41;;;;;;;19.33;9.23;;;;;;;-2.46;100.00;100750.38;4971978;28;20034;-73
2023/12/10 03:15:07;;;;;;;18.67;9.87;;;;;;;-2.30;100.00;100760.25;4971743;28;20097;-73
2023/12/10 03:17:33;;;;;;;17.63;9.70;;;;;;;-2.19;100.00;100773.91;4971752;28;20042;-73
2023/12/10 03:19:58;;;;;;;15.87;9.20;;;;;;;-2.04;100.00;100764.31;4971354;28;20059;-72
2023/12/10 03:22:24;;;;;;;17.53;9.70;;;;;;;-1.99;100.00;100754.63;4971049;28;20027;-73
2023/12/10 03:24:49;;;;;;;16.00;9.00;;;;;;;-2.38;100.00;100692.03;4954535;28;20120;-73
2023/12/10 03:27:14;;;;;;;17.70;9.47;;;;;;;-2.05;100.00;100751.53;4971373;28;20027;-73
2023/12/10 03:29:40;;;;;;;16.47;8.30;;;;;;;-2.05;100.00;100743.94;4971865;28;20026;-73
2023/12/10 03:32:06;;;;;;;17.03;8.10;;;;;;;-2.08;100.00;100724.31;4971439;28;20034;-73
2023/12/10 03:34:31;;;;;;;16.37;8.17;;;;;;;-2.01;100.00;100746.00;4972045;28;20035;-73
2023/12/10 03:36:57;;;;;;;17.13;8.27;;;;;;;-2.35;100.00;100685.63;4971532;28;20502;-73
2023/12/10 03:39:22;;;;;;;19.13;9.10;;;;;;;-2.02;100.00;100745.13;4972112;28;20031;-73
2023/12/10 03:41:49;;;;;;;19.30;8.40;;;;;;;-2.49;100.00;100666.66;4971712;28;20030;-73
2023/12/10 03:44:15;;;;;;;19.67;9.60;;;;;;;-2.22;100.00;100704.44;4971591;28;20401;-73
2023/12/10 03:46:40;;;;;;;20.63;10.23;;;;;;;-2.09;100.00;100739.34;4971260;28;20025;-73
2023/12/10 03:49:06;;;;;;;20.90;9.07;;;;;;;-2.27;100.00;100736.91;4971284;28;20058;-73
2023/12/10 03:51:31;;;;;;;17.60;9.33;;;;;;;-2.42;100.00;100733.84;4971761;28;20027;-73
2023/12/10 03:53:57;;;;;;;18.53;9.63;;;;;;;-2.30;100.00;100740.03;4971645;28;20094;-73
2023/12/10 03:56:23;;;;;;;15.47;8.27;;;;;;;-2.29;100.00;100741.81;4968765;28;20098;-73
2023/12/10 03:58:48;;;;;;;17.73;8.63;;;;;;;-2.37;100.00;100727.56;4961229;28;20114;-73
2023/12/10 04:01:14;;;;;;;18.53;8.80;;;;;;;-2.72;100.00;100668.72;4971502;28;20035;-73
2023/12/10 04:03:40;;;;;;;18.07;9.03;;;;;;;-2.32;100.00;100739.03;4971466;28;20035;-73
2023/12/10 04:06:05;;;;;;;18.57;9.57;;;;;;;-2.25;100.00;100745.53;4953801;28;20059;-73
2023/12/10 04:08:31;;;;;;;15.90;8.93;;;;;;;-2.28;100.00;100737.63;4971274;28;20042;-73
2023/12/10 04:10:57;;;;;;;18.93;8.37;;;;;;;-2.39;100.00;100745.88;4971112;28;20409;-73
2023/12/10 04:13:22;;;;;;;18.73;8.57;;;;;;;-2.40;100.00;100756.78;4971584;28;20078;-73
2023/12/10 04:15:48;;;;;;;20.63;8.90;;;;;;;-2.34;100.00;100758.22;4970978;28;20470;-74
2023/12/10 04:18:16;;;;;;;17.83;9.33;;;;;;;-2.22;100.00;100760.97;4971299;28;20042;-74
2023/12/10 04:20:43;;;;;;;15.87;9.00;;;;;;;-2.37;100.00;100744.38;4970834;28;20031;-73
2023/12/10 04:23:08;;;;;;;19.00;9.43;;;;;;;-2.77;100.00;100691.00;4971396;28;20039;-73
2023/12/10 04:25:34;;;;;;;24.30;10.53;;;;;;;-2.38;100.00;100768.81;4953612;28;20027;-73
2023/12/10 04:27:59;;;;;;;17.97;8.70;;;;;;;-2.45;100.00;100776.56;4970961;28;20105;-73
2023/12/10 04:30:26;;;;;;;25.50;10.17;;;;;;;-2.62;100.00;100757.28;4971081;28;20027;-73
2023/12/10 04:32:55;;;;;;;20.60;10.03;;;;;;;-2.63;100.00;100763.97;4974179;28;20491;-73
2023/12/10 04:35:20;;;;;;;19.53;10.00;;;;;;;-2.47;100.00;100778.94;4974979;28;20086;-73
2023/12/10 04:37:46;;;;;;;18.37;9.40;;;;;;;-2.45;100.00;100785.00;4974878;28;20035;-73
2023/12/10 04:40:11;;;;;;;20.13;9.97;;;;;;;-2.57;100.00;100765.28;4975059;28;20065;-74
2023/12/10 04:42:38;;;;;;;19.97;10.43;;;;;;;-2.44;100.00;100784.28;4974715;28;20042;-74
2023/12/10 04:45:06;;;;;;;19.77;9.23;;;;;;;-2.56;100.00;100777.19;4974844;28;20069;-73
2023/12/10 04:47:32;;;;;;;21.50;9.57;;;;;;;-2.54;100.00;100775.66;4973839;28;20137;-74
2023/12/10 04:49:58;;;;;;;15.80;9.37;;;;;;;-2.86;100.00;100697.75;4965560;28;20106;-74
2023/12/10 04:52:23;;;;;;;16.23;8.33;;;;;;;-2.22;100.00;100796.38;4957172;28;20027;-74
2023/12/10 04:54:49;;;;;;;19.00;9.23;;;;;;;-2.19;100.00;100785.69;4970478;28;20038;-74
2023/12/10 04:57:14;;;;;;;19.27;9.00;;;;;;;-2.04;100.00;100796.34;4970380;28;20081;-74
2023/12/10 04:59:40;;;;;;;22.37;10.30;;;;;;;-2.39;100.00;100708.88;4974072;28;20114;-74
2023/12/10 05:02:05;;;;;;;17.53;9.63;;;;;;;-1.81;100.00;100786.69;4974389;28;20031;-74
2023/12/10 05:04:31;;;;;;;18.60;9.30;;;;;;;-1.67;100.00;100780.34;4974452;28;20031;-75
2023/12/10 05:06:57;;;;;;;19.03;9.20;;;;;;;-1.49;100.00;100790.34;4973977;28;20477;-74
2023/12/10 05:09:22;;;;;;;17.50;10.07;;;;;;;-1.41;100.00;100798.63;4973899;28;20581;-74
2023/12/10 05:11:48;;;;;;;17.13;8.10;;;;;;;-1.73;100.00;100725.72;4976806;28;20405;-74
2023/12/10 05:14:13;;;;;;;17.13;9.47;;;;;;;-1.80;100.00;100704.03;4974872;28;20038;-74
2023/12/10 05:16:39;;;;;;;15.60;9.77;;;;;;;-1.35;100.00;100769.66;4980125;28;20389;-74
2023/12/10 05:19:04;;;;;;;16.13;8.60;;;;;;;-1.15;100.00;100790.81;4973679;28;20105;-74
2023/12/10 05:21:34;;;;;;;20.93;9.63;;;;;;;-1.12;100.00;100787.66;4974242;28;20466;-74
2023/12/10 05:24:00;;;;;;;17.20;8.47;;;;;;;-1.17;100.00;100760.28;4958653;28;20375;-74
2023/12/10 05:26:25;;;;;;;15.80;8.73;;;;;;;-2.03;100.00;100636.16;4973678;28;20105;-73
2023/12/10 05:28:51;;;;;;;21.57;10.53;;;;;;;-1.43;100.00;100787.44;4976095;28;20069;-73
2023/12/10 05:31:16;;;;;;;37.97;15.30;;;;;;;-1.75;100.00;100734.84;4981418;28;20496;-73
2023/12/10 05:33:41;;;;;;;62.60;27.90;;;;;;;-1.40;100.00;100787.75;4974216;28;20085;-73
2023/12/10 05:36:08;;;;;;;30.70;15.73;;;;;;;-1.32;100.00;100784.25;4973811;28;20023;-74
2023/12/10 05:38:33;;;;;;;20.53;9.50;;;;;;;-1.45;100.00;100772.13;4973095;28;20511;-74
2023/12/10 05:40:59;;;;;;;20.57;9.50;;;;;;;-1.50;100.00;100788.56;4973865;28;20039;-74
2023/12/10 05:43:27;;;;;;;23.07;10.27;;;;;;;-2.24;100.00;100699.25;4954317;28;20046;-73
2023/12/10 05:45:53;;;;;;;22.40;10.27;;;;;;;-1.97;100.00;100784.38;4973615;28;20122;-74
2023/12/10 05:48:20;;;;;;;18.10;8.77;;;;;;;-2.19;100.00;100742.69;4973599;28;20101;-72
2023/12/10 05:50:46;;;;;;;18.40;10.07;;;;;;;-2.17;100.00;100729.44;4973348;28;20030;-73
2023/12/10 05:53:11;;;;;;;33.37;15.93;;;;;;;-1.63;100.00;100811.88;4973291;28;20029;-73
2023/12/10 05:55:37;;;;;;;25.60;13.07;;;;;;;-1.61;100.00;100820.50;4973230;28;20046;-73
2023/12/10 05:58:02;;;;;;;31.23;18.80;;;;;;;-1.59;100.00;100813.06;4973380;28;20050;-73
2023/12/10 06:00:28;;;;;;;25.33;13.37;;;;;;;-1.61;100.00;100810.38;4973379;28;20027;-73
2023/12/10 06:02:53;;;;;;;22.17;11.60;;;;;;;-1.54;100.00;100810.16;4973414;28;20669;-73
2023/12/10 06:05:19;;;;;;;20.60;11.40;;;;;;;-1.58;100.00;100830.91;4973450;28;20497;-73
2023/12/10 06:07:44;;;;;;;22.10;10.23;;;;;;;-1.61;100.00;100820.50;4973363;28;20409;-73
2023/12/10 06:10:12;;;;;;;21.10;10.87;;;;;;;-1.63;100.00;100824.53;4973376;28;20520;-73
2023/12/10 06:12:37;;;;;;;17.20;9.47;;;;;;;-1.63;100.00;100822.00;4955770;28;20038;-73
2023/12/10 06:15:03;;;;;;;16.73;9.13;;;;;;;-2.24;100.00;100732.13;4973654;28;20023;-73
2023/12/10 06:17:29;;;;;;;17.00;9.20;;;;;;;-1.70;100.00;100801.94;4973332;28;20409;-73
2023/12/10 06:19:54;;;;;;;18.97;10.50;;;;;;;-1.57;100.00;100822.56;4972785;28;20054;-73
2023/12/10 06:22:20;;;;;;;20.60;10.90;;;;;;;-1.56;100.00;100814.19;4972892;28;20026;-73
2023/12/10 06:24:45;;;;;;;18.53;10.17;;;;;;;-2.24;100.00;100689.16;4973180;28;20532;-73
2023/12/10 06:27:11;;;;;;;20.37;10.83;;;;;;;-1.55;100.00;100820.16;4973111;28;20022;-73
2023/12/10 06:29:36;;;;;;;23.07;12.30;;;;;;;-1.68;100.00;100803.00;4972905;28;20062;-73
2023/12/10 06:32:02;;;;;;;25.63;13.93;;;;;;;-1.72;100.00;100786.63;4973095;28;20377;-73
2023/12/10 06:34:28;;;;;;;68.17;33.50;;;;;;;-1.87;100.00;100760.81;4972805;28;20042;-73
2023/12/10 06:36:53;;;;;;;32.20;17.37;;;;;;;-1.85;100.00;100766.00;4972432;28;20023;-73
2023/12/10 06:39:19;;;;;;;22.77;11.20;;;;;;;-1.36;100.00;100821.09;4972557;28;20034;-73
2023/12/10 06:41:44;;;;;;;24.10;11.90;;;;;;;-1.38;100.00;100809.03;4972733;28;20085;-73
2023/12/10 06:44:14;;;;;;;24.73;12.90;;;;;;;-1.21;100.00;100811.44;4973068;28;20413;-73
2023/12/10 06:46:40;;;;;;;22.77;11.67;;;;;;;-1.21;100.00;100802.94;4939482;28;20465;-73
2023/12/10 06:49:05;;;;;;;23.83;12.33;;;;;;;-1.14;100.00;100815.41;4972732;28;20093;-73
2023/12/10 06:51:31;;;;;;;26.27;14.57;;;;;;;-1.07;100.00;100825.34;4972011;28;20030;-73
2023/12/10 06:53:56;;;;;;;24.30;12.83;;;;;;;-1.16;100.00;100789.94;4972554;28;20085;-73
2023/12/10 06:56:22;;;;;;;23.57;13.53;;;;;;;-0.91;100.00;100817.44;4972302;28;20034;-73
2023/12/10 06:58:47;;;;;;;27.70;13.50;;;;;;;-0.92;100.00;100805.53;4972282;28;20409;-73
2023/12/10 07:01:14;;;;;;;23.07;11.80;;;;;;;-0.87;100.00;100801.75;4972470;28;20027;-73
2023/12/10 07:03:39;;;;;;;22.53;13.23;;;;;;;-1.38;100.00;100718.75;4972568;28;20023;-73
2023/12/10 07:06:25;;;;;;;23.50;12.60;;;;;;;-1.77;100.00;100652.81;4972251;28;20203;-73
2023/12/10 07:08:51;;;;;;;23.70;13.23;;;;;;;-1.04;100.00;100771.50;4950275;29;20067;-73
2023/12/10 07:11:16;;;;;;;19.57;10.97;;;;;;;-1.06;100.00;100767.94;4934106;29;20071;-73
2023/12/10 07:13:43;;;;;;;23.33;11.30;;;;;;;-0.92;100.00;100803.00;4918623;29;20043;-72
2023/12/10 07:16:09;;;;;;;24.83;11.67;;;;;;;-1.14;100.00;100767.25;4950300;29;20507;-72
2023/12/10 07:18:35;;;;;;;19.63;10.77;;;;;;;-1.03;100.00;100796.97;4949998;29;20055;-72
2023/12/10 07:21:00;;;;;;;22.40;12.07;;;;;;;-1.05;100.00;100787.47;4949850;29;20047;-72
2023/12/10 07:23:25;;;;;;;21.30;11.57;;;;;;;-1.02;100.00;100792.81;4950305;29;20035;-72
2023/12/10 07:25:51;;;;;;;21.83;11.40;;;;;;;-1.01;100.00;100782.81;4950017;29;20585;-74
2023/12/10 07:28:16;;;;;;;22.70;11.20;;;;;;;-0.88;100.00;100789.81;4950291;29;20094;-72
2023/12/10 07:30:42;;;;;;;22.90;11.57;;;;;;;-1.21;100.00;100722.78;4950000;28;20429;-72
2023/12/10 07:33:07;;;;;;;19.17;11.17;;;;;;;-0.90;100.00;100755.84;4949955;28;20074;-72
2023/12/10 07:35:33;;;;;;;24.23;12.90;;;;;;;-0.90;100.00;100727.97;4945592;29;20089;-72
2023/12/10 07:37:58;;;;;;;22.87;11.23;;;;;;;-0.57;100.00;100763.72;4949989;29;20493;-73
2023/12/10 07:40:24;;;;;;;25.20;12.20;;;;;;;-0.26;100.00;100795.13;4933525;29;20063;-72
2023/12/10 07:42:49;;;;;;;27.43;11.70;;;;;;;-0.21;100.00;100801.50;4949960;29;20492;-72
2023/12/10 07:45:15;;;;;;;27.10;11.37;;;;;;;-0.28;100.00;100796.66;4951279;28;20023;-72
2023/12/10 07:47:40;;;;;;;22.83;10.53;;;;;;;-0.37;100.00;100806.03;4971396;28;20027;-73
2023/12/10 07:50:06;;;;;;;24.13;10.43;;;;;;;-0.77;100.00;100734.09;4971000;28;20019;-73
2023/12/10 07:52:32;;;;;;;22.37;9.87;;;;;;;-0.33;100.00;100801.31;4971884;28;20666;-73
2023/12/10 07:54:57;;;;;;;22.57;10.40;;;;;;;-0.36;100.00;100800.19;4971437;28;20029;-72
2023/12/10 07:57:23;;;;;;;22.17;11.07;;;;;;;-0.84;100.00;100728.50;4971530;28;20041;-73
2023/12/10 07:59:48;;;;;;;22.13;10.63;;;;;;;-0.46;100.00;100795.97;4971032;28;20700;-73
2023/12/10 08:02:14;;;;;;;26.37;12.97;;;;;;;-0.34;100.00;100803.72;4971345;28;20111;-73
2023/12/10 08:04:39;;;;;;;17.93;10.47;;;;;;;-0.21;100.00;100818.38;4970942;28;20404;-73
2023/12/10 08:07:05;;;;;;;24.90;12.73;;;;;;;-0.20;100.00;100815.97;4975046;28;20094;-73
2023/12/10 08:09:30;;;;;;;22.50;11.50;;;;;;;-0.26;100.00;100820.50;4943602;28;20039;-73
2023/12/10 08:11:56;;;;;;;20.23;10.87;;;;;;;-0.28;100.00;100816.06;4977687;28;20043;-73
2023/12/10 08:14:25;;;;;;;20.47;10.73;;;;;;;-0.30;100.00;100794.75;4977226;28;20022;-73
2023/12/10 08:16:51;;;;;;;23.55;11.60;;;;;;;-0.25;100.00;100814.69;4977769;28;20031;-73
2023/12/10 08:19:17;;;;;;;23.90;12.40;;;;;;;-0.19;100.00;100801.63;4977308;28;20053;-73
2023/12/10 08:21:44;;;;;;;25.77;12.53;;;;;;;-0.03;100.00;100808.88;4977315;28;20034;-73
2023/12/10 08:24:10;;;;;;;24.13;11.37;;;;;;;-0.04;100.00;100805.47;4977388;28;20023;-73
2023/12/10 08:26:35;;;;;;;26.38;11.68;;;;;;;-0.01;100.00;100808.25;4977600;28;20034;-73
2023/12/10 08:29:01;;;;;;;26.10;11.95;;;;;;;-0.26;100.00;100774.84;4977594;28;20474;-73
2023/12/10 08:31:27;;;;;;;22.33;12.47;;;;;;;-0.03;100.00;100811.41;4977354;28;20035;-73
2023/12/10 08:33:52;;;;;;;26.50;13.97;;;;;;;-0.04;100.00;100805.47;4977407;28;20027;-73
2023/12/10 08:36:18;;;;;;;26.00;13.30;;;;;;;-0.25;100.00;100766.47;4977583;28;20077;-73
2023/12/10 08:38:43;;;;;;;28.77;14.63;;;;;;;-0.03;100.00;100791.13;4977041;28;20027;-73
2023/12/10 08:41:10;;;;;;;24.67;12.63;;;;;;;-0.02;100.00;100792.91;4977813;28;20035;-74
2023/12/10 08:43:37;;;;;;;24.95;12.50;;;;;;;-0.03;100.00;100784.38;4977022;28;20548;-73
2023/12/10 08:46:04;;;;;;;28.53;12.53;;;;;;;0.11;100.00;100803.34;4977298;28;20031;-73
2023/12/10 08:48:30;;;;;;;24.90;11.53;;;;;;;0.13;100.00;100806.00;4977426;28;20031;-73
2023/12/10 08:50:56;;;;;;;22.58;12.13;;;;;;;0.21;100.00;100806.63;4977618;28;20030;-73
2023/12/10 08:53:22;;;;;;;25.92;14.27;;;;;;;0.22;100.00;100800.81;4977491;28;20503;-74
2023/12/10 08:55:48;;;;;;;29.27;16.17;;;;;;;0.33;100.00;100805.13;4977448;28;20512;-74
2023/12/10 08:58:14;;;;;;;26.58;15.00;;;;;;;0.38;100.00;100783.53;4974272;28;20035;-74
2023/12/10 09:00:40;;;;;;;22.30;12.07;;;;;;;0.40;100.00;100792.16;4977205;28;20145;-75
2023/12/10 09:03:05;;;;;;;26.63;15.43;;;;;;;0.46;100.00;100792.69;4976889;28;20027;-75
2023/12/10 09:05:31;;;;;;;20.48;10.48;;;;;;;0.41;100.00;100798.13;4977451;28;20594;-73
2023/12/10 09:07:57;;;;;;;21.13;10.80;;;;;;;0.37;100.00;100780.88;4977196;28;20026;-74
2023/12/10 09:10:23;;;;;;;20.02;11.15;;;;;;;0.34;100.00;100788.22;4977974;28;20045;-74
2023/12/10 09:12:48;;;;;;;20.50;11.53;;;;;;;0.29;100.00;100783.66;4977526;28;20027;-73
2023/12/10 09:15:14;;;;;;;20.57;12.00;;;;;;;0.24;100.00;100768.81;4976971;28;20035;-73
2023/12/10 09:17:40;;;;;;;20.43;11.30;;;;;;;0.43;100.00;100779.72;4976381;28;20038;-73
2023/12/10 09:20:07;;;;;;;25.55;12.73;;;;;;;0.50;100.00;100770.97;4974020;28;20425;-73
2023/12/10 09:22:32;;;;;;;20.85;11.48;;;;;;;0.53;100.00;100770.31;4955759;28;20042;-73
2023/12/10 09:24:58;;;;;;;23.20;12.05;;;;;;;0.53;100.00;100770.31;4973977;28;20038;-72
2023/12/10 09:27:25;;;;;;;22.43;10.83;;;;;;;0.46;100.00;100764.75;4973791;28;20026;-72
2023/12/10 09:29:51;;;;;;;20.15;11.60;;;;;;;0.52;100.00;100760.91;4974162;28;20030;-73
2023/12/10 09:32:20;;;;;;;23.33;12.68;;;;;;;0.52;100.00;100771.06;4973711;28;20085;-73
2023/12/10 09:34:46;;;;;;;20.75;9.65;;;;;;;0.55;100.00;100756.06;4974112;28;20101;-73
2023/12/10 09:37:14;;;;;;;22.57;11.33;;;;;;;0.07;100.00;100676.88;4973985;28;20114;-73
2023/12/10 09:39:40;;;;;;;21.67;11.50;;;;;;;0.48;100.00;100742.88;4973684;28;20026;-73
2023/12/10 09:42:05;;;;;;;20.98;10.13;;;;;;;0.46;100.00;100744.41;4973442;28;20058;-73
2023/12/10 09:44:31;;;;;;;23.33;11.83;;;;;;;0.47;100.00;100747.84;4973536;28;20533;-72
2023/12/10 09:46:57;;;;;;;22.03;11.90;;;;;;;0.49;100.00;100751.41;4973842;28;20397;-72
2023/12/10 09:49:26;;;;;;;21.55;11.95;;;;;;;0.54;100.00;100741.63;4973578;28;20022;-72
2023/12/10 09:51:52;;;;;;;22.70;11.32;;;;;;;0.46;100.00;100726.63;4973476;28;20033;-72
2023/12/10 09:54:20;;;;;;;22.83;12.13;;;;;;;0.51;100.00;100737.16;4973673;28;20030;-72
2023/12/10 09:56:48;;;;;;;22.88;11.70;;;;;;;0.58;100.00;100728.38;4973014;28;20485;-73
2023/12/10 09:59:14;;;;;;;17.60;10.10;;;;;;;0.68;100.00;100728.38;4973530;28;20039;-72
2023/12/10 10:01:48;;;;;;;17.80;10.07;;;;;;;0.70;100.00;100731.03;4973490;28;20034;-72
2023/12/10 10:04:14;;;;;;;19.67;10.15;;;;;;;0.74;100.00;100731.41;4973210;28;20111;-72
2023/12/10 10:06:39;;;;;;;17.35;9.43;;;;;;;0.54;100.00;100698.44;4973478;28;20034;-72
2023/12/10 10:09:05;;;;;;;19.70;10.98;;;;;;;0.80;100.00;100736.97;4973034;28;20043;-72
2023/12/10 10:11:30;;;;;;;20.02;10.80;;;;;;;0.91;100.00;100726.75;4973538;28;20397;-73
2023/12/10 10:13:57;;;;;;;22.13;10.68;;;;;;;0.41;100.00;100646.66;4954897;28;20030;-73
2023/12/10 10:16:23;;;;;;;17.33;10.07;;;;;;;0.51;100.00;100638.06;4973281;28;20037;-73
2023/12/10 10:18:49;;;;;;;20.00;10.82;;;;;;;0.94;100.00;100696.53;4972884;28;20121;-72
2023/12/10 10:21:14;;;;;;;20.23;12.40;;;;;;;1.12;100.00;100708.16;4973123;28;20039;-73
2023/12/10 10:23:41;;;;;;;19.92;11.85;;;;;;;1.10;100.00;100712.22;4972610;28;20034;-73
2023/12/10 10:26:07;;;;;;;19.25;10.50;;;;;;;1.02;100.00;100687.81;4972979;28;20041;-74
2023/12/10 10:28:34;;;;;;;18.83;9.98;;;;;;;1.17;100.00;100699.97;4972824;28;20117;-73
2023/12/10 10:31:01;;;;;;;18.40;9.57;;;;;;;1.25;100.00;100698.94;4972536;28;20027;-72
2023/12/10 10:33:26;;;;;;;19.15;10.88;;;;;;;1.32;100.00;100693.56;4972549;28;20409;-73
2023/12/10 10:35:52;;;;;;;23.65;11.48;;;;;;;1.42;100.00;100688.41;4972846;28;20037;-73
2023/12/10 10:38:20;;;;;;;18.63;10.10;;;;;;;1.53;100.00;100683.25;4972834;28;20069;-73
2023/12/10 10:40:47;;;;;;;18.98;10.77;;;;;;;1.58;100.00;100676.84;4968521;28;20497;-73
2023/12/10 10:43:13;;;;;;;19.73;10.60;;;;;;;1.54;100.00;100667.22;4972787;28;20040;-73
2023/12/10 10:45:38;;;;;;;20.88;11.35;;;;;;;1.50;100.00;100663.53;4972666;28;20105;-73
2023/12/10 10:48:04;;;;;;;18.98;10.57;;;;;;;1.58;100.00;100674.31;4972467;28;20050;-73
2023/12/10 10:50:32;;;;;;;25.58;12.15;;;;;;;1.39;100.00;100624.56;4972633;28;20088;-73
2023/12/10 10:53:00;;;;;;;19.67;10.20;;;;;;;1.63;100.00;100657.72;4971873;28;20501;-73
2023/12/10 10:55:48;;;;;;;18.85;10.65;;;;;;;1.62;100.00;100648.34;4937355;29;20055;-73
2023/12/10 10:58:28;;;;;;;18.40;9.88;;;;;;;1.57;100.00;100632.72;4919236;29;20039;-73
2023/12/10 11:00:55;;;;;;;20.50;11.60;;;;;;;1.65;100.00;100624.78;4950278;29;20529;-73
2023/12/10 11:03:24;;;;;;;19.48;11.10;;;;;;;1.90;100.00;100651.25;4950754;29;20114;-73